This is the latest recevied weather packets stored in our database for station/object GW1597. If no packets are shown the sender has not sent any weather packets the latest 10 day(s).
| Time | Temp. | Humidity | Pressure | Rain* | Wind** | Luminosity | Snow |
|---|---|---|---|---|---|---|---|
| 1777500023 | 18.33° C | 90% | 982.7 hPa | 7.87 mm | - | - | - |
| 1777497889 | 19.44° C | 93% | - | 3.81 mm | - | - | - |
| 1777492106 | 23.89° C | 71% | - | 0.51 mm | - | - | - |
| 1777491380 | 23.33° C | 73% | - | 0.51 mm | - | - | - |
| 1777485267 | 22.78° C | 76% | - | 0.51 mm | - | - | - |
| 1777481668 | 21.67° C | 83% | 983 hPa | 0.51 mm | - | - | - |
| 1777480578 | 21.67° C | 86% | 983 hPa | 0.51 mm | - | - | - |
| 1777480229 | 21.11° C | 88% | 983 hPa | 0.51 mm | - | - | - |
| 1777477711 | 20° C | 94% | 983.7 hPa | 0.51 mm | - | - | - |
| 1777476262 | 20° C | 94% | 984.4 hPa | 0.51 mm | - | - | - |
| 1777475927 | 19.44° C | 93% | 984.4 hPa | 0.25 mm | - | - | - |
| 1777474460 | 18.89° C | 93% | 984.7 hPa | 0 mm | - | - | - |
| 1777469809 | 17.22° C | 95% | 984.7 hPa | 0 mm | - | - | - |
| 1777469074 | 17.22° C | 95% | 984.7 hPa | 0 mm | - | - | - |
| 1777467288 | 17.22° C | 95% | 985.4 hPa | 0 mm | - | - | - |
| 1777466905 | 16.67° C | 95% | 985.4 hPa | 0 mm | - | - | - |
| 1777465467 | 16.67° C | 96% | 985.4 hPa | 0 mm | - | - | - |
| 1777464764 | 16.11° C | 96% | 985.4 hPa | 0 mm | - | - | - |
| 1777464393 | 16.11° C | 96% | 985.4 hPa | 0 mm | - | - | - |
| 1777462580 | - | - | 985.4 hPa | 0 mm | - | - | - |
| 1777453241 | 15.56° C | 95% | 984.7 hPa | 0 mm | - | - | - |
| 1777452889 | 15.56° C | 95% | 985.4 hPa | 0 mm | - | - | - |
| 1777452153 | 15.56° C | 95% | 985.7 hPa | 0 mm | - | - | - |
| 1777448568 | 15.56° C | 96% | 986.4 hPa | 0 mm | - | - | - |
| 1777448179 | 15.56° C | 96% | 986.1 hPa | 0 mm | - | - | - |
* Rain since midnight (hover to see other rain measurements)
** Current wind speed in m/s (hover to see current wind gust speed)